Time;durP1;ratioP1;P1;durP2;ratioP2;P2;SDS_P1;SDS_P2;PMS_P1;PMS_P2;Temp;Humidity;BMP_temperature;BMP_pressure;BME280_temperature;BME280_humidity;BME280_pressure;Samples;Min_cycle;Max_cycle;Signal;HPM_P1;HPM_P2
2023/03/02 00:01:42;;;;;;;21.08;12.77;;;2.80;99.90;;;;;;5040337;28;20074;-63
2023/03/02 00:04:15;;;;;;;19.48;12.93;;;2.80;99.90;;;;;;5049415;28;20048;-62
2023/03/02 00:06:41;;;;;;;17.70;12.82;;;2.80;99.90;;;;;;5051090;28;20085;-62
2023/03/02 00:09:07;;;;;;;20.38;12.88;;;2.70;99.90;;;;;;5023965;28;20056;-63
2023/03/02 00:11:34;;;;;;;21.75;13.55;;;2.70;99.90;;;;;;5033086;28;20650;-63
2023/03/02 00:14:00;;;;;;;16.15;12.13;;;2.70;99.90;;;;;;5049536;28;20048;-63
2023/03/02 00:16:26;;;;;;;20.65;13.15;;;2.70;99.90;;;;;;5049124;28;20433;-63
2023/03/02 00:18:52;;;;;;;19.95;13.27;;;2.70;99.90;;;;;;5044396;28;20075;-62
2023/03/02 00:21:18;;;;;;;18.90;13.13;;;2.60;99.90;;;;;;5041108;28;20156;-63
2023/03/02 00:23:43;;;;;;;19.73;13.20;;;2.70;99.90;;;;;;5043558;28;20044;-62
2023/03/02 00:26:09;;;;;;;22.95;12.75;;;2.70;99.90;;;;;;5045257;28;20044;-63
2023/03/02 00:28:35;;;;;;;18.13;12.65;;;2.70;99.90;;;;;;5037900;28;20083;-63
2023/03/02 00:31:05;;;;;;;18.42;12.68;;;2.60;99.90;;;;;;5044903;28;20053;-63
2023/03/02 00:33:32;;;;;;;15.35;11.13;;;2.70;99.90;;;;;;5044317;28;20050;-63
2023/03/02 00:35:58;;;;;;;19.75;10.70;;;2.70;99.90;;;;;;5040528;28;20052;-63
2023/03/02 00:38:24;;;;;;;14.10;10.32;;;2.60;99.90;;;;;;5040537;28;20040;-63
2023/03/02 00:40:49;;;;;;;14.73;10.25;;;2.60;99.90;;;;;;5041428;28;20073;-63
2023/03/02 00:43:16;;;;;;;14.93;10.18;;;2.50;99.90;;;;;;5024520;28;20925;-63
2023/03/02 00:45:42;;;;;;;13.95;10.20;;;2.50;99.90;;;;;;5023487;28;20348;-63
2023/03/02 00:48:08;;;;;;;13.35;9.73;;;2.50;99.90;;;;;;5043534;28;20050;-62
2023/03/02 00:50:39;;;;;;;11.50;9.35;;;2.50;99.90;;;;;;5044499;28;20052;-63
2023/03/02 00:53:09;;;;;;;11.82;9.20;;;2.50;99.90;;;;;;5041755;28;20084;-63
2023/03/02 00:55:36;;;;;;;11.02;8.82;;;2.50;99.90;;;;;;5030148;28;20526;-62
2023/03/02 00:58:04;;;;;;;10.95;8.65;;;2.40;99.90;;;;;;5041601;28;20966;-62
2023/03/02 01:00:31;;;;;;;13.18;9.07;;;2.40;99.90;;;;;;5026180;28;20068;-63
2023/03/02 01:02:57;;;;;;;11.85;8.77;;;2.40;99.90;;;;;;5042959;28;20119;-63
2023/03/02 01:05:23;;;;;;;12.05;9.23;;;2.40;99.90;;;;;;5021691;28;20109;-63
2023/03/02 01:07:49;;;;;;;13.95;9.70;;;2.40;99.90;;;;;;5038928;28;20097;-63
2023/03/02 01:10:15;;;;;;;13.88;10.27;;;2.40;99.90;;;;;;5026424;28;20090;-63
2023/03/02 01:12:41;;;;;;;13.27;10.10;;;2.40;99.90;;;;;;5007396;28;20048;-63
2023/03/02 01:15:07;;;;;;;14.10;9.88;;;2.40;99.90;;;;;;5009076;28;20057;-63
2023/03/02 01:17:33;;;;;;;14.88;10.50;;;2.40;99.90;;;;;;5025961;28;20105;-63
2023/03/02 01:19:59;;;;;;;14.90;10.55;;;2.30;99.90;;;;;;5028405;28;20961;-63
2023/03/02 01:22:25;;;;;;;14.55;10.80;;;2.40;99.90;;;;;;5009586;28;20041;-63
2023/03/02 01:24:52;;;;;;;15.98;10.63;;;2.40;99.90;;;;;;5028755;28;20105;-62
2023/03/02 01:27:18;;;;;;;15.38;11.55;;;2.30;99.90;;;;;;5027734;28;20048;-63
2023/03/02 01:29:44;;;;;;;18.10;11.25;;;2.30;99.90;;;;;;4994305;28;20044;-63
2023/03/02 01:32:10;;;;;;;16.08;11.88;;;2.30;99.90;;;;;;5030721;28;20157;-63
2023/03/02 01:34:36;;;;;;;16.58;11.75;;;2.30;99.90;;;;;;5012743;28;20163;-62
2023/03/02 01:37:02;;;;;;;16.88;12.00;;;2.30;99.90;;;;;;5044842;28;20129;-62
2023/03/02 01:39:28;;;;;;;17.58;12.02;;;2.30;99.90;;;;;;5017962;28;20048;-63
2023/03/02 01:41:54;;;;;;;15.50;11.18;;;2.20;99.90;;;;;;5044008;28;20064;-62
2023/03/02 01:44:48;;;;;;;18.60;12.05;;;2.20;99.90;;;;;;5005784;28;21146;-62
2023/03/02 01:47:21;;;;;;;17.83;12.52;;;2.20;99.90;;;;;;5033703;28;20673;-62
2023/03/02 01:49:54;;;;;;;16.80;12.70;;;2.20;99.90;;;;;;5033736;28;20147;-62
2023/03/02 01:52:21;;;;;;;;;;;2.20;99.90;;;;;;5049688;28;20048;-62
2023/03/02 01:54:49;;;;;;;18.10;13.10;;;2.20;99.90;;;;;;5049800;28;19924;-61
2023/03/02 01:57:23;;;;;;;19.42;13.82;;;2.20;99.90;;;;;;5035827;28;20070;-62
2023/03/02 01:59:54;;;;;;;21.58;13.98;;;2.20;99.90;;;;;;5031224;28;20499;-62
2023/03/02 02:02:20;;;;;;;20.77;13.70;;;2.20;99.90;;;;;;5034349;28;20512;-61
2023/03/02 02:04:47;;;;;;;19.75;13.73;;;2.20;99.90;;;;;;5034425;28;20064;-62
2023/03/02 02:07:14;;;;;;;22.40;14.48;;;2.20;99.90;;;;;;5026972;28;20468;-62
2023/03/02 02:09:44;;;;;;;22.00;15.23;;;2.20;99.90;;;;;;5054824;28;20060;-62
2023/03/02 02:12:13;;;;;;;22.23;15.73;;;2.20;99.90;;;;;;5048368;28;20682;-62
2023/03/02 02:14:39;;;;;;;24.10;15.45;;;2.10;99.90;;;;;;5047368;28;20971;-62
2023/03/02 02:17:05;;;;;;;25.17;16.85;;;2.10;99.90;;;;;;5041945;28;20190;-62
2023/03/02 02:19:47;;;;;;;30.25;18.20;;;2.10;99.90;;;;;;5045398;28;20052;-62
2023/03/02 02:22:21;;;;;;;27.00;17.30;;;2.10;99.90;;;;;;5041572;28;20040;-62
2023/03/02 02:24:56;;;;;;;29.38;19.00;;;2.10;99.90;;;;;;5038597;28;20064;-62
2023/03/02 02:27:32;;;;;;;31.20;19.05;;;2.00;99.90;;;;;;5035159;28;20139;-62
2023/03/02 02:30:01;;;;;;;28.30;18.40;;;2.00;99.90;;;;;;5025854;28;20518;-62
2023/03/02 02:32:31;;;;;;;29.98;18.63;;;2.00;99.90;;;;;;5042615;28;20482;-62
2023/03/02 02:35:10;;;;;;;28.92;18.15;;;2.20;99.90;;;;;;5041920;28;20049;-62
2023/03/02 02:37:44;;;;;;;29.58;19.80;;;2.00;99.90;;;;;;5042648;28;21297;-64
2023/03/02 02:40:15;;;;;;;32.42;19.30;;;2.00;99.90;;;;;;5038666;28;20045;-62
2023/03/02 02:42:45;;;;;;;31.52;19.60;;;2.00;99.90;;;;;;5033386;28;20485;-61
2023/03/02 02:45:24;;;;;;;31.45;19.83;;;2.00;99.90;;;;;;5043946;28;20123;-62
2023/03/02 02:47:51;;;;;;;32.22;19.67;;;2.00;99.90;;;;;;5045773;28;20062;-62
2023/03/02 02:50:24;;;;;;;33.03;21.17;;;1.90;99.90;;;;;;5057031;28;20106;-61
2023/03/02 02:52:55;;;;;;;;;;;1.90;99.90;;;;;;5057003;28;20056;-62
2023/03/02 02:55:23;;;;;;;32.28;19.83;;;1.90;99.90;;;;;;5038045;28;20013;-61
2023/03/02 02:57:53;;;;;;;33.55;21.13;;;1.90;99.90;;;;;;5044867;28;20040;-62
2023/03/02 03:00:20;;;;;;;33.78;20.92;;;1.90;99.90;;;;;;5053815;28;20117;-61
2023/03/02 03:03:05;;;;;;;35.80;20.38;;;1.90;99.90;;;;;;5038982;28;20110;-62
2023/03/02 03:05:30;;;;;;;33.65;20.85;;;1.90;99.90;;;;;;5025023;28;20143;-62
2023/03/02 03:08:08;;;;;;;34.53;21.00;;;1.90;99.90;;;;;;5044923;28;20060;-62
2023/03/02 03:10:38;;;;;;;35.03;21.67;;;1.90;99.90;;;;;;5043319;28;20515;-62
2023/03/02 03:13:10;;;;;;;31.48;20.55;;;1.90;99.90;;;;;;5047212;28;20056;-62
2023/03/02 03:15:36;;;;;;;38.28;22.08;;;1.90;99.90;;;;;;5066322;28;20142;-62
2023/03/02 03:18:02;;;;;;;36.95;22.08;;;2.00;99.90;;;;;;5047679;28;20048;-62
2023/03/02 03:20:28;;;;;;;38.15;23.25;;;1.90;99.90;;;;;;5046247;28;20154;-62
2023/03/02 03:22:54;;;;;;;39.33;22.50;;;2.00;99.90;;;;;;5049119;28;20040;-61
2023/03/02 03:25:24;;;;;;;40.72;22.95;;;2.00;99.90;;;;;;5028465;28;20052;-62
2023/03/02 03:27:49;;;;;;;36.67;23.60;;;1.90;99.90;;;;;;5058375;28;20056;-62
2023/03/02 03:30:15;;;;;;;36.22;22.17;;;1.90;99.90;;;;;;5041790;28;20467;-62
2023/03/02 03:32:41;;;;;;;39.60;22.98;;;1.90;99.90;;;;;;5026288;28;20048;-62
2023/03/02 03:35:10;;;;;;;40.85;23.35;;;1.90;99.90;;;;;;5046636;28;20100;-61
2023/03/02 03:37:38;;;;;;;40.53;23.63;;;1.90;99.90;;;;;;5029223;28;20130;-63
2023/03/02 03:40:06;;;;;;;44.40;24.63;;;1.90;99.90;;;;;;5037524;28;20048;-62
2023/03/02 03:42:32;;;;;;;40.17;23.67;;;1.90;99.90;;;;;;5038979;28;20054;-62
2023/03/02 03:44:58;;;;;;;44.35;25.50;;;1.80;99.90;;;;;;5042329;28;20051;-62
2023/03/02 03:47:24;;;;;;;44.15;25.40;;;1.80;99.90;;;;;;5042433;28;21290;-62
2023/03/02 03:49:50;;;;;;;45.70;26.42;;;1.80;99.90;;;;;;5044641;28;20644;-61
2023/03/02 03:52:15;;;;;;;42.65;25.15;;;1.80;99.90;;;;;;5030493;28;20055;-62
2023/03/02 03:54:41;;;;;;;47.67;25.85;;;1.90;99.90;;;;;;5062518;28;21103;-62
2023/03/02 03:57:09;;;;;;;47.05;25.92;;;1.80;99.90;;;;;;5046585;28;20121;-62
2023/03/02 03:59:35;;;;;;;63.72;27.67;;;1.80;99.90;;;;;;5058933;28;20569;-61
2023/03/02 04:02:02;;;;;;;65.97;27.95;;;1.80;99.90;;;;;;5044713;28;20055;-62
2023/03/02 04:04:33;;;;;;;61.45;27.05;;;1.70;99.90;;;;;;5027003;28;20188;-62
2023/03/02 04:06:59;;;;;;;65.30;27.13;;;1.70;99.90;;;;;;5053683;28;20056;-62
2023/03/02 04:09:26;;;;;;;52.90;27.52;;;1.70;99.90;;;;;;5047274;28;20094;-62
2023/03/02 04:11:53;;;;;;;81.82;27.73;;;1.70;99.90;;;;;;5013637;28;21226;-62
2023/03/02 04:14:21;;;;;;;170.40;31.55;;;1.70;99.90;;;;;;5049199;28;20053;-61
2023/03/02 04:16:47;;;;;;;54.25;27.73;;;1.70;99.90;;;;;;5035717;28;20054;-62
2023/03/02 04:19:13;;;;;;;115.95;28.67;;;1.70;99.90;;;;;;5035468;28;20044;-61
2023/03/02 04:21:41;;;;;;;136.43;32.85;;;1.60;99.90;;;;;;5038613;28;20809;-62
2023/03/02 04:24:08;;;;;;;69.82;27.80;;;1.60;99.90;;;;;;5068917;28;20134;-61
2023/03/02 04:26:36;;;;;;;66.00;29.85;;;1.60;99.90;;;;;;5038462;28;20059;-62
2023/03/02 04:29:03;;;;;;;117.40;32.00;;;1.60;99.90;;;;;;5050184;28;20806;-62
2023/03/02 04:31:30;;;;;;;99.10;30.55;;;1.60;99.90;;;;;;5055981;28;20062;-62
2023/03/02 04:33:56;;;;;;;80.15;29.90;;;1.50;99.90;;;;;;5037937;28;20052;-62
2023/03/02 04:36:22;;;;;;;99.32;30.20;;;1.50;99.90;;;;;;5041943;28;20153;-62
2023/03/02 04:38:48;;;;;;;107.30;31.75;;;1.50;99.90;;;;;;5047571;28;20641;-61
2023/03/02 04:41:15;;;;;;;138.90;32.70;;;1.50;99.90;;;;;;5052899;28;20044;-62
2023/03/02 04:43:41;;;;;;;80.05;31.15;;;1.50;99.90;;;;;;5053730;28;20513;-62
2023/03/02 04:46:08;;;;;;;81.82;32.97;;;1.50;99.90;;;;;;5052560;28;20048;-61
2023/03/02 04:48:34;;;;;;;74.95;30.42;;;1.50;99.90;;;;;;5049547;28;20485;-61
2023/03/02 04:50:59;;;;;;;122.63;35.30;;;1.50;99.90;;;;;;5050955;28;20048;-62
2023/03/02 04:53:27;;;;;;;129.25;34.92;;;1.50;99.90;;;;;;5025697;28;20048;-62
2023/03/02 04:55:53;;;;;;;91.07;34.22;;;1.50;99.90;;;;;;5045160;28;20051;-62
2023/03/02 04:58:18;;;;;;;85.40;31.85;;;1.50;99.90;;;;;;5060594;28;21982;-61
2023/03/02 05:00:44;;;;;;;119.45;32.65;;;1.50;99.90;;;;;;5028368;28;20136;-61
2023/03/02 05:03:10;;;;;;;107.55;33.00;;;1.50;99.90;;;;;;5062011;28;20052;-62
2023/03/02 05:05:36;;;;;;;206.77;37.22;;;1.50;99.90;;;;;;5027270;28;20074;-62
2023/03/02 05:08:02;;;;;;;92.32;32.97;;;1.50;99.90;;;;;;5062719;28;20048;-61
2023/03/02 05:10:28;;;;;;;201.75;36.05;;;1.50;99.90;;;;;;5025591;28;20040;-62
2023/03/02 05:12:56;;;;;;;181.45;35.78;;;1.50;99.90;;;;;;5062933;28;20062;-62
2023/03/02 05:15:29;;;;;;;134.55;33.95;;;1.50;99.90;;;;;;5043649;28;20059;-62
2023/03/02 05:17:55;;;;;;;164.27;34.25;;;1.50;99.90;;;;;;5049229;28;20150;-62
2023/03/02 05:20:26;;;;;;;135.07;33.45;;;1.40;99.90;;;;;;5047651;28;20139;-62
2023/03/02 05:23:00;;;;;;;159.00;33.88;;;1.40;99.90;;;;;;5050389;28;20107;-61
2023/03/02 05:25:28;;;;;;;161.90;33.90;;;1.40;99.90;;;;;;5063281;28;20071;-62
2023/03/02 05:27:54;;;;;;;225.52;34.17;;;1.40;99.90;;;;;;5040269;28;20985;-62
2023/03/02 05:30:21;;;;;;;335.33;41.53;;;1.40;99.90;;;;;;5044114;28;20048;-61
2023/03/02 05:32:47;;;;;;;227.10;33.65;;;1.40;99.90;;;;;;5045174;28;20048;-62
2023/03/02 05:35:13;;;;;;;149.23;36.65;;;1.40;99.90;;;;;;5039427;28;20055;-62
2023/03/02 05:37:41;;;;;;;150.50;33.63;;;1.40;99.90;;;;;;5068802;28;20044;-61
2023/03/02 05:40:18;;;;;;;157.73;33.45;;;1.40;99.90;;;;;;5037531;28;20052;-62
2023/03/02 05:42:44;;;;;;;165.48;31.63;;;1.40;99.90;;;;;;5036244;28;20151;-61
2023/03/02 05:45:27;;;;;;;87.28;29.90;;;1.30;99.90;;;;;;5046650;28;20347;-62
2023/03/02 05:47:53;;;;;;;235.55;32.35;;;1.30;99.90;;;;;;5078809;28;20043;-62
2023/03/02 05:50:20;;;;;;;239.70;33.30;;;1.30;99.90;;;;;;5067950;28;20047;-61
2023/03/02 05:52:46;;;;;;;144.35;30.85;;;1.30;99.90;;;;;;5070332;28;20140;-61
2023/03/02 05:55:13;;;;;;;150.32;30.40;;;1.30;99.90;;;;;;5065316;28;20047;-61
2023/03/02 05:57:40;;;;;;;188.82;35.05;;;1.30;99.90;;;;;;5069533;28;20036;-61
2023/03/02 06:00:08;;;;;;;145.88;31.17;;;1.30;99.90;;;;;;5060259;28;20052;-62
2023/03/02 06:02:34;;;;;;;123.45;30.55;;;1.30;99.90;;;;;;5054623;28;20083;-61
2023/03/02 06:05:00;;;;;;;178.98;34.45;;;1.30;99.90;;;;;;5040996;28;20443;-62
2023/03/02 06:07:26;;;;;;;250.98;36.95;;;1.30;99.90;;;;;;5052436;28;20055;-62
2023/03/02 06:09:52;;;;;;;120.72;33.60;;;1.30;99.90;;;;;;5042389;28;20062;-62
2023/03/02 06:12:17;;;;;;;96.53;31.60;;;1.30;99.90;;;;;;5042082;28;20052;-62
2023/03/02 06:14:43;;;;;;;144.93;33.53;;;1.30;99.90;;;;;;5056624;28;20081;-62
2023/03/02 06:17:09;;;;;;;125.55;33.05;;;1.30;99.90;;;;;;5049632;28;20137;-61
2023/03/02 06:19:35;;;;;;;121.03;30.23;;;1.30;99.90;;;;;;5049716;28;20056;-62
2023/03/02 06:22:01;;;;;;;122.32;32.90;;;1.40;99.90;;;;;;5063562;28;20079;-63
2023/03/02 06:24:27;;;;;;;101.38;32.33;;;1.40;99.90;;;;;;5048915;28;20051;-61
2023/03/02 06:26:53;;;;;;;173.68;36.83;;;1.40;99.90;;;;;;5042387;28;20174;-62
2023/03/02 06:29:20;;;;;;;185.73;37.55;;;1.40;99.90;;;;;;5031462;28;20048;-62
2023/03/02 06:31:46;;;;;;;175.30;38.72;;;1.40;99.90;;;;;;5047560;28;20966;-62
2023/03/02 06:34:12;;;;;;;119.63;36.33;;;1.40;99.90;;;;;;5063381;28;20047;-62
2023/03/02 06:36:38;;;;;;;164.63;35.38;;;1.40;99.90;;;;;;5047840;28;20089;-62
2023/03/02 06:39:05;;;;;;;198.40;36.15;;;1.40;99.90;;;;;;5064673;28;20125;-57
2023/03/02 06:41:34;;;;;;;148.88;35.35;;;1.40;99.90;;;;;;5045375;28;20136;-57
2023/03/02 06:44:00;;;;;;;108.78;35.40;;;1.40;99.90;;;;;;5059616;28;20127;-58
2023/03/02 06:46:26;;;;;;;123.97;39.00;;;1.40;99.90;;;;;;5066564;28;20138;-56
2023/03/02 06:48:52;;;;;;;148.77;33.85;;;1.40;99.90;;;;;;5048038;28;20047;-60
2023/03/02 06:51:18;;;;;;;162.90;33.30;;;1.40;99.90;;;;;;5061016;28;20135;-57
2023/03/02 06:53:44;;;;;;;211.48;34.67;;;1.40;99.90;;;;;;5077883;28;20043;-56
2023/03/02 06:56:09;;;;;;;115.97;32.55;;;1.40;99.90;;;;;;5060247;28;20052;-58
2023/03/02 06:58:36;;;;;;;67.30;29.65;;;1.40;99.90;;;;;;5086354;28;20111;-57
2023/03/02 07:01:02;;;;;;;230.27;40.20;;;1.40;99.90;;;;;;5065002;28;20036;-56
2023/03/02 07:03:28;;;;;;;140.95;34.03;;;1.40;99.90;;;;;;5076903;28;20043;-58
2023/03/02 07:05:54;;;;;;;107.00;32.75;;;1.40;99.90;;;;;;5079808;28;20108;-58
2023/03/02 07:08:20;;;;;;;126.15;34.25;;;1.40;99.90;;;;;;5035451;28;20120;-58
2023/03/02 07:10:45;;;;;;;113.78;33.95;;;1.40;99.90;;;;;;5074708;28;20040;-57
2023/03/02 07:13:11;;;;;;;158.43;32.75;;;1.40;99.90;;;;;;5062327;28;20513;-58
2023/03/02 07:15:40;;;;;;;174.65;35.10;;;1.40;99.90;;;;;;5072383;28;20052;-58
2023/03/02 07:18:06;;;;;;;252.45;34.42;;;1.50;99.90;;;;;;5078453;28;20040;-57
2023/03/02 07:20:33;;;;;;;123.82;31.08;;;1.50;99.90;;;;;;5085338;28;20043;-57
2023/03/02 07:22:59;;;;;;;63.10;28.45;;;1.40;99.90;;;;;;5063754;28;20043;-57
2023/03/02 07:25:24;;;;;;;240.82;32.33;;;1.40;99.90;;;;;;5077082;28;20051;-57
2023/03/02 07:27:50;;;;;;;197.85;33.10;;;1.40;99.90;;;;;;5060422;28;20051;-58
2023/03/02 07:30:19;;;;;;;182.27;34.25;;;1.40;99.90;;;;;;5079558;28;20044;-58
2023/03/02 07:32:46;;;;;;;214.95;31.33;;;1.40;99.90;;;;;;5065381;28;20086;-57
2023/03/02 07:35:12;;;;;;;147.20;33.42;;;1.50;99.90;;;;;;5082571;28;20059;-57
2023/03/02 07:37:38;;;;;;;140.98;31.38;;;1.50;99.90;;;;;;5079419;28;20040;-57
2023/03/02 07:40:05;;;;;;;97.95;30.40;;;1.40;99.90;;;;;;5081266;28;20035;-57
2023/03/02 07:42:32;;;;;;;120.60;32.60;;;1.40;99.90;;;;;;5078961;28;20493;-58
2023/03/02 07:44:58;;;;;;;193.10;34.13;;;1.50;99.90;;;;;;5066129;28;20051;-57
2023/03/02 07:47:24;;;;;;;143.35;31.85;;;1.40;99.90;;;;;;5058314;28;20044;-58
2023/03/02 07:49:50;;;;;;;175.38;32.13;;;1.40;99.90;;;;;;5081949;28;20140;-58
2023/03/02 07:52:16;;;;;;;78.35;26.90;;;1.40;99.90;;;;;;5061206;28;20044;-57
2023/03/02 07:54:41;;;;;;;112.82;29.08;;;1.50;99.90;;;;;;5077297;28;20040;-58
2023/03/02 07:57:07;;;;;;;58.22;27.15;;;1.50;99.90;;;;;;5078875;28;20044;-58
2023/03/02 07:59:33;;;;;;;78.25;28.58;;;1.50;99.90;;;;;;5063701;28;20402;-58
2023/03/02 08:01:59;;;;;;;69.82;28.48;;;1.50;99.90;;;;;;5075538;28;20036;-58
2023/03/02 08:04:25;;;;;;;103.80;29.75;;;1.60;99.90;;;;;;5058931;28;20077;-63
2023/03/02 08:06:51;;;;;;;94.13;29.42;;;1.60;99.90;;;;;;5060084;28;20048;-57
2023/03/02 08:09:17;;;;;;;175.07;30.58;;;1.70;99.90;;;;;;5079457;28;20740;-58
2023/03/02 08:11:43;;;;;;;271.75;35.60;;;1.60;99.90;;;;;;5085573;28;20046;-57
2023/03/02 08:14:09;;;;;;;178.88;30.55;;;1.70;99.90;;;;;;5063643;28;20048;-58
2023/03/02 08:16:35;;;;;;;130.05;30.45;;;1.70;99.90;;;;;;5064089;28;20048;-58
2023/03/02 08:19:01;;;;;;;152.85;26.83;;;1.70;99.90;;;;;;5064603;28;23450;-59
2023/03/02 08:21:28;;;;;;;73.65;25.90;;;1.60;99.90;;;;;;5083994;28;20513;-59
2023/03/02 08:23:54;;;;;;;61.85;25.80;;;1.70;99.90;;;;;;5083769;28;20040;-57
2023/03/02 08:26:20;;;;;;;91.45;26.13;;;1.70;99.90;;;;;;5060964;28;21043;-57
2023/03/02 08:28:45;;;;;;;58.05;23.00;;;1.70;99.90;;;;;;5071398;28;20081;-58
2023/03/02 08:31:12;;;;;;;93.85;23.15;;;1.70;99.90;;;;;;5082319;28;20123;-58
2023/03/02 08:33:39;;;;;;;38.88;20.17;;;1.70;99.90;;;;;;5055601;28;20119;-59
2023/03/02 08:36:12;;;;;;;43.25;19.35;;;1.70;99.90;;;;;;5073612;28;20120;-59
2023/03/02 08:38:38;;;;;;;36.33;18.95;;;1.70;99.90;;;;;;5068594;28;20047;-59
2023/03/02 08:41:06;;;;;;;39.38;19.38;;;1.60;99.90;;;;;;5069082;28;20048;-57
2023/03/02 08:43:33;;;;;;;37.53;19.70;;;1.70;99.90;;;;;;5072751;28;20489;-57
2023/03/02 08:46:00;;;;;;;48.97;21.17;;;1.70;99.90;;;;;;5073653;28;20051;-58
2023/03/02 08:48:27;;;;;;;50.38;22.52;;;1.70;99.90;;;;;;5050271;28;20056;-58
2023/03/02 08:51:03;;;;;;;39.53;18.15;;;1.80;99.90;;;;;;5076800;28;20128;-59
2023/03/02 08:53:33;;;;;;;36.03;17.77;;;1.80;99.90;;;;;;5068157;28;20063;-58
2023/03/02 08:55:59;;;;;;;33.92;17.98;;;1.90;99.90;;;;;;5071136;28;20048;-60
2023/03/02 08:58:25;;;;;;;32.85;18.38;;;1.90;99.90;;;;;;5053022;28;20048;-59
2023/03/02 09:00:51;;;;;;;31.85;18.17;;;2.00;99.90;;;;;;5075307;28;20047;-58
2023/03/02 09:03:17;;;;;;;36.72;18.60;;;2.00;99.90;;;;;;5063929;28;20100;-58
2023/03/02 09:05:43;;;;;;;38.47;18.98;;;2.10;99.90;;;;;;5074891;28;20491;-57
2023/03/02 09:08:09;;;;;;;39.13;18.85;;;2.00;99.90;;;;;;5073441;28;20524;-59
2023/03/02 09:10:36;;;;;;;38.97;18.40;;;2.10;99.90;;;;;;5072990;28;20060;-58
2023/03/02 09:13:01;;;;;;;36.97;18.33;;;2.10;99.90;;;;;;5074373;28;20111;-59
2023/03/02 09:15:27;;;;;;;35.25;18.33;;;2.20;99.90;;;;;;5069658;28;20059;-59
2023/03/02 09:17:53;;;;;;;34.47;18.88;;;2.20;99.90;;;;;;5058669;28;20122;-58
2023/03/02 09:20:19;;;;;;;32.75;17.38;;;2.30;99.90;;;;;;5074400;28;20433;-58
2023/03/02 09:22:49;;;;;;;35.58;18.10;;;2.40;99.90;;;;;;5071070;28;20043;-58
2023/03/02 09:25:17;;;;;;;31.63;16.58;;;2.50;99.90;;;;;;5071681;28;20367;-59
2023/03/02 09:27:44;;;;;;;31.38;16.85;;;2.50;99.90;;;;;;5049155;28;20470;-58
2023/03/02 09:30:11;;;;;;;33.45;17.65;;;2.50;99.90;;;;;;5061446;28;20052;-59
2023/03/02 09:32:37;;;;;;;32.35;17.00;;;2.60;99.90;;;;;;5060760;28;20592;-59
2023/03/02 09:35:02;;;;;;;29.80;17.00;;;2.70;99.90;;;;;;5064421;28;20063;-57
2023/03/02 09:37:28;;;;;;;31.80;18.25;;;2.80;99.90;;;;;;5060954;28;20048;-59
2023/03/02 09:39:54;;;;;;;35.08;16.25;;;2.90;99.90;;;;;;5072277;28;20044;-56
2023/03/02 09:42:42;;;;;;;27.00;15.60;;;2.90;99.90;;;;;;5059805;28;20044;-58
2023/03/02 09:45:20;;;;;;;34.40;17.35;;;2.90;99.90;;;;;;5075236;28;20039;-58
2023/03/02 09:48:09;;;;;;;27.80;16.40;;;2.90;99.90;;;;;;5075459;28;20800;-57
2023/03/02 09:50:38;;;;;;;28.95;15.82;;;2.90;99.90;;;;;;5073657;28;20483;-57
2023/03/02 09:53:22;;;;;;;29.52;16.80;;;3.00;99.90;;;;;;5073816;28;20047;-58
2023/03/02 09:55:59;;;;;;;28.77;15.23;;;3.10;99.90;;;;;;5067426;28;20056;-58
2023/03/02 09:58:32;;;;;;;28.35;15.90;;;3.20;99.90;;;;;;5069024;28;20320;-57
2023/03/02 10:01:02;;;;;;;27.13;15.75;;;3.40;99.90;;;;;;5066323;28;20146;-59
2023/03/02 10:03:37;;;;;;;24.45;14.77;;;3.60;99.90;;;;;;5068314;28;20073;-59
2023/03/02 10:06:03;;;;;;;27.08;14.55;;;3.70;99.90;;;;;;5066780;28;20066;-59
2023/03/02 10:08:33;;;;;;;25.85;14.40;;;3.70;99.90;;;;;;5050384;28;20047;-60
2023/03/02 10:11:13;;;;;;;23.30;13.65;;;3.70;99.90;;;;;;5072633;28;20067;-59
2023/03/02 10:14:04;;;;;;;20.15;12.35;;;3.50;99.90;;;;;;5068717;28;20068;-58
2023/03/02 10:16:37;;;;;;;26.90;14.32;;;3.50;99.90;;;;;;5082794;28;20468;-57
2023/03/02 10:19:12;;;;;;;24.50;14.13;;;3.60;99.90;;;;;;5058046;28;20435;-59
2023/03/02 10:21:50;;;;;;;25.88;15.00;;;3.60;99.90;;;;;;5081916;28;20080;-57
2023/03/02 10:24:22;;;;;;;27.50;15.73;;;3.70;99.90;;;;;;5079415;28;20044;-58
2023/03/02 10:26:53;;;;;;;26.88;15.52;;;3.80;99.90;;;;;;5082918;28;20043;-57
2023/03/02 10:29:31;;;;;;;25.60;14.63;;;3.90;99.90;;;;;;5077598;28;20517;-57
2023/03/02 10:32:15;;;;;;;25.88;14.50;;;3.90;99.90;;;;;;5080887;28;20046;-58
2023/03/02 10:34:41;;;;;;;24.75;14.57;;;4.00;99.90;;;;;;5075199;28;20075;-58
2023/03/02 10:37:16;;;;;;;27.77;15.63;;;4.00;99.90;;;;;;5070663;28;20139;-60
2023/03/02 10:39:42;;;;;;;25.90;15.18;;;4.00;99.90;;;;;;5063640;28;20047;-58
2023/03/02 10:42:32;;;;;;;29.20;15.75;;;4.20;99.90;;;;;;5066947;28;20046;-58
2023/03/02 10:45:25;;;;;;;25.08;14.95;;;4.40;99.90;;;;;;5081580;28;20150;-58
2023/03/02 10:48:09;;;;;;;24.58;14.48;;;4.70;99.90;;;;;;5075517;28;20044;-58
2023/03/02 10:50:35;;;;;;;30.08;15.93;;;5.00;99.90;;;;;;5080340;28;20832;-58
2023/03/02 10:53:02;;;;;;;26.88;14.57;;;5.10;99.90;;;;;;5066626;28;20121;-57
2023/03/02 10:55:28;;;;;;;24.15;14.07;;;5.30;99.90;;;;;;5058650;28;20044;-58
2023/03/02 10:58:17;;;;;;;22.85;13.30;;;5.40;99.90;;;;;;5074833;28;20036;-58
2023/03/02 11:01:04;;;;;;;25.02;13.98;;;5.70;99.90;;;;;;5074347;28;20059;-58
2023/03/02 11:03:32;;;;;;;24.08;13.40;;;5.80;99.90;;;;;;5073230;28;20043;-60
2023/03/02 11:06:09;;;;;;;22.27;13.43;;;5.90;99.90;;;;;;5073933;28;21096;-57
2023/03/02 11:08:35;;;;;;;23.23;13.43;;;6.00;99.90;;;;;;5073691;28;20044;-60
2023/03/02 11:11:03;;;;;;;24.27;14.85;;;5.90;99.90;;;;;;5067217;28;20055;-57
2023/03/02 11:13:31;;;;;;;25.38;14.50;;;5.80;99.90;;;;;;5073458;28;20114;-58
2023/03/02 11:16:00;;;;;;;22.73;13.57;;;5.80;99.90;;;;;;5075642;28;20059;-58
2023/03/02 11:18:25;;;;;;;21.08;12.65;;;5.90;99.90;;;;;;5046992;28;20095;-59
2023/03/02 11:20:55;;;;;;;22.90;13.38;;;5.90;99.90;;;;;;5075528;28;20127;-59
2023/03/02 11:23:30;;;;;;;23.73;14.55;;;6.00;99.90;;;;;;5041880;28;20080;-59
2023/03/02 11:26:05;;;;;;;23.70;13.90;;;6.20;99.90;;;;;;5070927;28;20051;-58
2023/03/02 11:28:48;;;;;;;22.75;14.18;;;6.30;99.90;;;;;;5069447;28;22102;-58
2023/03/02 11:31:54;;;;;;;22.63;13.43;;;6.60;99.90;;;;;;5072829;28;20044;-60
2023/03/02 11:34:38;;;;;;;21.08;12.98;;;6.80;99.90;;;;;;5022318;28;20060;-60
2023/03/02 11:37:10;;;;;;;21.73;13.40;;;7.00;99.90;;;;;;5076642;28;20036;-59
2023/03/02 11:39:48;;;;;;;19.52;12.38;;;7.20;99.90;;;;;;5043007;28;20083;-60
2023/03/02 11:42:40;;;;;;;20.48;13.00;;;7.30;99.90;;;;;;5058044;28;20082;-58
2023/03/02 11:45:12;;;;;;;22.73;13.82;;;7.40;99.90;;;;;;5057317;28;20167;-59
2023/03/02 11:47:40;;;;;;;22.25;14.00;;;7.50;99.90;;;;;;5072662;28;20052;-58
2023/03/02 11:50:10;;;;;;;19.83;13.15;;;7.70;99.90;;;;;;5075268;28;20127;-59
2023/03/02 11:52:40;;;;;;;23.00;14.75;;;7.90;99.90;;;;;;5063555;28;20403;-58
2023/03/02 11:55:17;;;;;;;21.38;13.27;;;8.10;99.90;;;;;;5037688;28;20049;-60
2023/03/02 11:57:49;;;;;;;22.40;14.52;;;8.10;99.90;;;;;;5050148;28;20040;-59
2023/03/02 12:00:26;;;;;;;24.63;15.25;;;8.30;99.90;;;;;;5067866;28;20048;-59
2023/03/02 12:03:13;;;;;;;24.27;14.68;;;8.50;99.90;;;;;;5028068;28;20052;-58
2023/03/02 12:05:41;;;;;;;23.40;14.90;;;8.70;99.90;;;;;;5064539;28;20071;-58
2023/03/02 12:08:19;;;;;;;26.20;16.00;;;8.90;99.90;;;;;;5064803;28;20047;-59
2023/03/02 12:11:17;;;;;;;26.52;16.60;;;8.90;99.90;;;;;;5059788;28;20134;-60
2023/03/02 12:13:56;;;;;;;28.38;16.98;;;8.70;99.90;;;;;;5060321;28;20048;-58
2023/03/02 12:16:35;;;;;;;26.15;16.00;;;8.40;99.90;;;;;;5068603;28;20383;-60
2023/03/02 12:19:31;;;;;;;25.35;16.10;;;8.50;99.90;;;;;;5061453;28;20055;-60
2023/03/02 12:21:58;;;;;;;24.95;16.55;;;8.70;99.90;;;;;;5056291;28;20052;-60
2023/03/02 12:24:37;;;;;;;26.02;15.45;;;8.90;99.90;;;;;;5052783;28;20712;-60
2023/03/02 12:27:26;;;;;;;22.65;14.02;;;9.10;99.90;;;;;;5062885;28;20134;-60
2023/03/02 12:30:10;;;;;;;20.80;13.40;;;9.30;99.90;;;;;;5059175;28;20040;-59
2023/03/02 12:32:36;;;;;;;24.75;15.40;;;9.20;99.90;;;;;;5072464;28;20070;-58
2023/03/02 12:35:09;;;;;;;20.02;14.30;;;9.00;99.90;;;;;;5077918;28;20478;-59
2023/03/02 12:37:35;;;;;;;21.55;15.02;;;8.90;99.90;;;;;;5078167;28;20036;-59
2023/03/02 12:40:22;;;;;;;21.90;14.48;;;8.70;99.90;;;;;;5062461;28;20117;-59
2023/03/02 12:43:28;;;;;;;24.73;14.20;;;8.60;99.90;;;;;;5070895;28;20079;-58
2023/03/02 12:46:26;;;;;;;21.77;13.40;;;8.60;99.90;;;;;;4998573;28;20132;-59
2023/03/02 12:49:04;;;;;;;19.73;13.43;;;8.60;99.90;;;;;;5057404;28;20056;-60